createdAt,value
2017-09-10T00:00:28.988Z,3.00
2017-09-10T00:02:55.667Z,4.43
2017-09-10T00:05:22.301Z,4.17
2017-09-10T00:07:48.984Z,2.77
2017-09-10T00:10:15.629Z,3.93
2017-09-10T00:12:42.264Z,3.40
2017-09-10T00:15:08.922Z,3.40
2017-09-10T00:17:35.597Z,3.10
2017-09-10T00:20:02.244Z,4.00
2017-09-10T00:22:28.950Z,3.80
2017-09-10T00:24:55.602Z,4.60
2017-09-10T00:27:22.285Z,3.33
2017-09-10T00:29:48.947Z,3.60
2017-09-10T00:32:15.613Z,4.77
2017-09-10T00:34:42.276Z,5.20
2017-09-10T00:37:08.913Z,4.17
2017-09-10T00:39:35.580Z,4.43
2017-09-10T00:42:02.217Z,3.30
2017-09-10T00:44:28.860Z,4.43
2017-09-10T00:46:55.520Z,4.47
2017-09-10T00:49:22.165Z,5.57
2017-09-10T00:51:48.824Z,4.80
2017-09-10T00:54:15.488Z,5.70
2017-09-10T00:56:42.140Z,3.90
2017-09-10T00:59:08.803Z,4.47
2017-09-10T01:01:35.466Z,4.47
2017-09-10T01:04:02.120Z,4.10
2017-09-10T01:06:28.794Z,5.20
2017-09-10T01:08:55.459Z,4.93
2017-09-10T01:11:22.100Z,5.17
2017-09-10T01:13:49.011Z,5.37
2017-09-10T01:16:15.656Z,5.30
2017-09-10T01:18:42.296Z,5.80
2017-09-10T01:21:08.981Z,4.83
2017-09-10T01:23:35.617Z,5.33
2017-09-10T01:26:02.260Z,6.23
2017-09-10T01:28:28.936Z,5.77
2017-09-10T01:30:55.574Z,5.53
2017-09-10T01:33:22.244Z,5.03
2017-09-10T01:35:48.887Z,6.50
2017-09-10T01:38:15.563Z,6.13
2017-09-10T01:40:42.204Z,6.63
2017-09-10T01:43:08.853Z,5.23
2017-09-10T01:45:35.520Z,7.93
2017-09-10T01:48:02.160Z,6.00
2017-09-10T01:50:28.830Z,6.00
2017-09-10T01:52:55.504Z,6.37
2017-09-10T01:55:22.171Z,6.83
2017-09-10T01:57:48.843Z,6.73
2017-09-10T02:00:15.496Z,6.17
2017-09-10T02:02:42.164Z,6.17
2017-09-10T02:05:08.809Z,6.83
2017-09-10T02:07:35.478Z,6.40
2017-09-10T02:10:02.120Z,6.77
2017-09-10T02:12:28.780Z,6.80
2017-09-10T02:14:55.412Z,7.47
2017-09-10T02:17:22.060Z,6.40
2017-09-10T02:19:48.728Z,7.10
2017-09-10T02:22:15.364Z,4.70
2017-09-10T02:24:42.043Z,6.33
2017-09-10T02:27:08.725Z,6.23
2017-09-10T02:29:35.367Z,5.80
2017-09-10T02:32:02.017Z,7.10
2017-09-10T02:34:28.674Z,7.50
2017-09-10T02:36:55.344Z,6.90
2017-09-10T02:39:21.980Z,6.97
2017-09-10T02:41:48.622Z,7.70
2017-09-10T02:44:15.279Z,6.43
2017-09-10T02:46:41.933Z,7.23
2017-09-10T02:49:08.923Z,6.60
2017-09-10T02:51:35.564Z,5.63
2017-09-10T02:54:02.216Z,7.53
2017-09-10T02:56:28.892Z,6.53
2017-09-10T02:58:55.680Z,6.63
2017-09-10T03:01:22.329Z,6.43
2017-09-10T03:03:48.964Z,5.23
2017-09-10T03:06:15.624Z,4.80
2017-09-10T03:08:42.267Z,5.20
2017-09-10T03:11:08.936Z,5.13
2017-09-10T03:13:35.579Z,5.13
2017-09-10T03:16:02.240Z,5.80
2017-09-10T03:18:28.884Z,6.10
2017-09-10T03:20:55.761Z,6.07
2017-09-10T03:23:22.395Z,5.50
2017-09-10T03:25:49.033Z,4.20
2017-09-10T03:34:58.260Z,4.50
2017-09-10T03:37:24.896Z,4.20
2017-09-10T03:39:51.819Z,5.00
2017-09-10T03:42:18.461Z,4.70
2017-09-10T03:44:45.101Z,6.37
2017-09-10T03:47:11.768Z,6.23
2017-09-10T03:49:38.413Z,5.33
2017-09-10T03:52:05.075Z,5.50
2017-09-10T03:54:31.718Z,6.37
2017-09-10T03:56:59.244Z,5.93
2017-09-10T03:59:25.884Z,5.60
2017-09-10T04:01:52.520Z,6.03
2017-09-10T04:04:19.193Z,7.03
2017-09-10T04:06:45.847Z,5.73
2017-09-10T04:09:12.491Z,5.77
2017-09-10T04:11:39.272Z,5.60
2017-09-10T04:14:05.910Z,5.10
2017-09-10T04:16:32.558Z,4.20
2017-09-10T04:18:59.224Z,5.47
2017-09-10T04:21:25.861Z,4.90
2017-09-10T04:23:52.861Z,5.23
2017-09-10T04:26:19.509Z,5.90
2017-09-10T04:28:46.151Z,5.20
2017-09-10T04:31:12.818Z,5.00
2017-09-10T04:33:39.462Z,5.27
2017-09-10T04:36:06.128Z,5.53
2017-09-10T04:38:32.776Z,4.70
2017-09-10T04:40:59.536Z,5.33
2017-09-10T04:43:26.176Z,5.77
2017-09-10T04:45:52.814Z,5.47
2017-09-10T04:48:19.473Z,5.70
2017-09-10T04:50:46.116Z,5.40
2017-09-10T04:53:13.177Z,5.13
2017-09-10T04:55:39.828Z,5.37
2017-09-10T04:58:06.485Z,6.50
2017-09-10T05:00:33.158Z,5.87
2017-09-10T05:02:59.801Z,5.20
2017-09-10T05:05:26.444Z,4.97
2017-09-10T05:07:53.120Z,7.07
2017-09-10T05:10:19.762Z,5.80
2017-09-10T05:12:46.395Z,6.77
2017-09-10T05:15:13.061Z,5.77
2017-09-10T05:17:40.556Z,6.40
2017-09-10T05:20:07.191Z,6.03
2017-09-10T05:22:33.841Z,5.20
2017-09-10T05:25:00.513Z,6.13
2017-09-10T05:27:27.160Z,6.13
2017-09-10T05:29:53.829Z,5.53
2017-09-10T05:32:20.487Z,6.53
2017-09-10T05:34:47.133Z,4.90
2017-09-10T05:37:13.764Z,5.70
2017-09-10T05:39:40.436Z,4.70
2017-09-10T05:42:07.072Z,4.50
2017-09-10T05:44:33.744Z,5.47
2017-09-10T05:47:00.383Z,4.13
2017-09-10T05:49:27.254Z,6.40
2017-09-10T05:51:53.896Z,3.90
2017-09-10T05:54:20.536Z,4.00
2017-09-10T05:56:47.204Z,3.67
2017-09-10T05:59:13.848Z,3.13
2017-09-10T06:01:40.519Z,3.97
2017-09-10T06:04:07.164Z,4.70
2017-09-10T06:06:33.851Z,4.43
2017-09-10T06:09:00.489Z,3.90
2017-09-10T06:11:27.141Z,4.80
2017-09-10T06:13:53.812Z,5.13
2017-09-10T06:16:20.494Z,4.17
2017-09-10T06:18:47.140Z,4.30
2017-09-10T06:21:13.790Z,5.30
2017-09-10T06:23:40.452Z,5.00
2017-09-10T06:26:07.093Z,5.37
2017-09-10T06:28:33.776Z,4.57
2017-09-10T06:31:00.416Z,5.47
2017-09-10T06:33:27.052Z,4.87
2017-09-10T06:35:53.995Z,4.27
2017-09-10T06:38:20.635Z,4.53
2017-09-10T06:40:47.281Z,5.33
2017-09-10T06:43:13.952Z,3.97
2017-09-10T06:45:40.595Z,3.97
2017-09-10T06:48:07.263Z,5.03
2017-09-10T06:50:33.908Z,5.17
2017-09-10T06:53:00.580Z,7.10
2017-09-10T06:55:27.228Z,7.30
2017-09-10T06:57:53.917Z,7.87
2017-09-10T07:00:20.569Z,9.07
2017-09-10T07:02:47.215Z,9.10
2017-09-10T07:05:13.881Z,9.80
2017-09-10T07:07:40.520Z,9.00
2017-09-10T07:10:07.196Z,11.60
2017-09-10T07:12:33.868Z,10.90
2017-09-10T07:15:00.544Z,10.63
2017-09-10T07:17:27.201Z,10.67
2017-09-10T07:19:53.972Z,10.97
2017-09-10T07:22:20.608Z,8.80
2017-09-10T07:24:47.247Z,8.20
2017-09-10T07:27:13.917Z,7.50
2017-09-10T07:29:40.564Z,6.97
2017-09-10T07:32:07.232Z,5.60
2017-09-10T07:34:33.872Z,5.07
2017-09-10T07:37:00.532Z,5.23
2017-09-10T07:39:27.187Z,3.87
2017-09-10T07:41:53.853Z,4.90
2017-09-10T07:44:20.523Z,4.50
2017-09-10T07:46:47.164Z,3.70
2017-09-10T07:49:13.801Z,3.77
2017-09-10T07:51:40.464Z,3.63
2017-09-10T07:54:07.101Z,4.50
2017-09-10T07:56:33.764Z,4.33
2017-09-10T07:59:00.399Z,5.20
2017-09-10T08:01:27.045Z,3.80
2017-09-10T08:03:53.712Z,4.77
2017-09-10T08:06:20.360Z,5.30
2017-09-10T08:08:46.995Z,5.90
2017-09-10T08:11:13.672Z,5.87
2017-09-10T08:13:40.733Z,5.03
2017-09-10T08:16:07.360Z,6.63
2017-09-10T08:18:34.030Z,6.13
2017-09-10T08:21:00.728Z,5.30
2017-09-10T08:23:27.402Z,6.03
2017-09-10T08:25:54.048Z,5.30
2017-09-10T08:28:20.723Z,5.60
2017-09-10T08:30:47.412Z,5.13
2017-09-10T08:33:14.042Z,5.30
2017-09-10T08:35:40.684Z,5.90
2017-09-10T08:38:07.352Z,5.60
2017-09-10T08:40:34.000Z,5.67
2017-09-10T08:43:00.672Z,6.13
2017-09-10T08:45:27.328Z,5.53
2017-09-10T08:47:54.000Z,6.00
2017-09-10T08:50:20.644Z,6.20
2017-09-10T08:52:47.310Z,6.50
2017-09-10T08:55:13.980Z,6.50
2017-09-10T08:57:40.622Z,4.73
2017-09-10T09:00:07.256Z,5.30
2017-09-10T09:02:33.945Z,5.63
2017-09-10T09:05:00.626Z,7.60
2017-09-10T09:07:27.599Z,4.30
2017-09-10T09:09:54.236Z,3.80
2017-09-10T09:12:20.877Z,3.10
2017-09-10T09:14:47.564Z,3.13
2017-09-10T09:17:14.216Z,3.33
2017-09-10T09:19:40.867Z,2.70
2017-09-10T09:22:07.517Z,2.73
2017-09-10T09:24:34.340Z,2.43
2017-09-10T09:27:00.979Z,2.90
2017-09-10T09:29:27.631Z,3.67
2017-09-10T09:31:54.526Z,2.50
2017-09-10T09:34:21.172Z,2.07
2017-09-10T09:36:47.806Z,1.87
2017-09-10T09:39:14.492Z,3.60
2017-09-10T09:41:41.134Z,2.20
2017-09-10T09:44:07.772Z,1.73
2017-09-10T09:46:34.439Z,1.53
2017-09-10T09:49:01.126Z,2.43
2017-09-10T09:51:28.056Z,2.03
2017-09-10T09:53:54.703Z,1.97
2017-09-10T09:56:21.343Z,1.93
2017-09-10T09:58:48.009Z,1.30
2017-09-10T10:01:14.648Z,1.63
2017-09-10T10:03:41.322Z,1.57
2017-09-10T10:06:08.000Z,1.63
2017-09-10T10:08:34.669Z,1.03
2017-09-10T10:11:01.324Z,1.50
2017-09-10T10:13:27.992Z,2.00
2017-09-10T10:15:54.647Z,1.50
2017-09-10T10:18:21.307Z,1.73
2017-09-10T10:20:47.948Z,1.13
2017-09-10T10:23:14.589Z,2.77
2017-09-10T10:25:41.265Z,4.77
2017-09-10T10:28:07.923Z,2.30
2017-09-10T10:30:34.597Z,1.13
2017-09-10T10:33:01.241Z,1.30
2017-09-10T10:35:27.903Z,1.03
2017-09-10T10:37:54.577Z,1.20
2017-09-10T10:40:21.230Z,1.77
2017-09-10T10:42:47.908Z,1.67
2017-09-10T10:45:14.541Z,2.23
2017-09-10T10:47:41.209Z,1.67
2017-09-10T10:50:07.873Z,1.43
2017-09-10T10:52:34.527Z,1.17
2017-09-10T10:55:01.202Z,1.27
2017-09-10T10:57:27.854Z,3.10
2017-09-10T10:59:54.811Z,1.57
2017-09-10T11:02:21.459Z,1.03
2017-09-10T11:04:48.096Z,0.80
2017-09-10T11:07:14.773Z,1.10
2017-09-10T11:09:42.022Z,1.43
2017-09-10T11:12:08.684Z,1.00
2017-09-10T11:14:35.324Z,1.43
2017-09-10T11:17:01.988Z,3.30
2017-09-10T11:19:28.669Z,1.20
2017-09-10T11:21:55.349Z,1.03
2017-09-10T11:24:21.989Z,0.80
2017-09-10T11:26:48.796Z,1.30
2017-09-10T11:29:15.444Z,0.90
2017-09-10T11:31:42.091Z,1.53
2017-09-10T11:34:08.767Z,1.57
2017-09-10T11:36:35.407Z,1.00
2017-09-10T11:39:02.069Z,0.90
2017-09-10T11:41:28.739Z,1.00
2017-09-10T11:43:55.376Z,6.23
2017-09-10T11:46:22.037Z,1.30
2017-09-10T11:48:48.675Z,0.90
2017-09-10T11:51:15.362Z,1.10
2017-09-10T11:53:42.041Z,1.20
2017-09-10T11:56:08.688Z,1.13
2017-09-10T11:58:35.332Z,1.10
2017-09-10T12:01:02.008Z,1.00
2017-09-10T12:03:28.648Z,0.90
2017-09-10T12:05:55.317Z,1.07
2017-09-10T12:08:21.957Z,1.87
2017-09-10T12:10:48.637Z,0.97
2017-09-10T12:13:15.303Z,1.00
2017-09-10T12:15:41.948Z,0.80
2017-09-10T12:18:08.605Z,1.00
2017-09-10T12:20:35.252Z,1.00
2017-09-10T12:23:01.901Z,0.93
2017-09-10T12:25:28.561Z,0.83
2017-09-10T12:27:55.236Z,1.23
2017-09-10T12:30:21.901Z,1.40
2017-09-10T12:32:48.551Z,2.60
2017-09-10T12:35:15.217Z,1.83
2017-09-10T12:37:41.857Z,2.43
2017-09-10T12:40:08.496Z,1.30
2017-09-10T12:42:35.156Z,1.50
2017-09-10T12:45:01.803Z,0.90
2017-09-10T12:47:28.447Z,1.37
2017-09-10T12:49:55.129Z,1.17
2017-09-10T12:52:21.804Z,1.50
2017-09-10T12:54:48.467Z,0.70
2017-09-10T12:57:15.101Z,0.87
2017-09-10T12:59:41.772Z,1.00
2017-09-10T13:02:08.400Z,1.03
2017-09-10T13:04:35.046Z,1.00
2017-09-10T13:07:01.717Z,1.23
2017-09-10T13:09:28.363Z,0.90
2017-09-10T13:11:55.032Z,1.77
2017-09-10T13:14:21.674Z,1.40
2017-09-10T13:16:48.323Z,0.93
2017-09-10T13:19:14.984Z,1.43
2017-09-10T13:21:41.660Z,1.30
2017-09-10T13:24:08.324Z,0.87
2017-09-10T13:26:34.960Z,0.90
2017-09-10T13:29:01.617Z,1.03
2017-09-10T13:31:28.492Z,1.13
2017-09-10T13:33:55.145Z,0.93
2017-09-10T13:36:21.789Z,1.20
2017-09-10T13:38:48.717Z,1.10
2017-09-10T13:41:15.360Z,1.10
2017-09-10T13:43:42.002Z,1.30
2017-09-10T13:46:08.674Z,1.30
2017-09-10T13:48:35.324Z,0.90
2017-09-10T13:51:01.968Z,1.80
2017-09-10T13:53:28.638Z,1.43
2017-09-10T13:55:55.310Z,1.03
2017-09-10T13:58:21.969Z,1.00
2017-09-10T14:00:48.628Z,0.90
2017-09-10T14:03:15.272Z,0.80
2017-09-10T14:05:41.973Z,1.10
2017-09-10T14:08:08.616Z,0.80
2017-09-10T14:10:36.254Z,0.73
2017-09-10T14:13:02.924Z,0.83
2017-09-10T14:15:29.563Z,1.00
2017-09-10T14:17:56.226Z,1.10
2017-09-10T14:20:22.867Z,0.90
2017-09-10T14:22:49.531Z,1.03
2017-09-10T14:25:16.173Z,1.10
2017-09-10T14:27:42.838Z,1.20
2017-09-10T14:30:09.504Z,1.50
2017-09-10T14:32:36.148Z,1.17
2017-09-10T14:35:02.818Z,2.13
2017-09-10T14:37:29.458Z,1.23
2017-09-10T14:39:56.116Z,0.80
2017-09-10T14:42:22.764Z,1.43
2017-09-10T14:44:49.557Z,2.73
2017-09-10T14:47:16.205Z,1.13
2017-09-10T14:49:42.849Z,1.03
2017-09-10T14:52:09.506Z,0.80
2017-09-10T14:54:36.168Z,1.00
2017-09-10T14:57:02.832Z,1.47
2017-09-10T14:59:29.481Z,1.20
2017-09-10T15:01:56.153Z,1.33
2017-09-10T15:04:22.801Z,1.23
2017-09-10T15:06:49.464Z,1.00
2017-09-10T15:09:16.101Z,0.90
2017-09-10T15:11:42.742Z,0.90
2017-09-10T15:14:09.423Z,0.90
2017-09-10T15:16:36.072Z,1.90
2017-09-10T15:19:02.771Z,1.37
2017-09-10T15:21:29.412Z,1.33
2017-09-10T15:23:56.055Z,1.30
2017-09-10T15:26:22.732Z,1.10
2017-09-10T15:28:49.394Z,1.73
2017-09-10T15:31:16.035Z,1.00
2017-09-10T15:33:42.701Z,1.20
2017-09-10T15:36:09.340Z,1.43
2017-09-10T15:38:36.012Z,1.07
2017-09-10T15:41:02.653Z,1.20
2017-09-10T15:43:29.300Z,1.10
2017-09-10T15:45:55.967Z,1.50
2017-09-10T15:48:22.608Z,1.20
2017-09-10T15:50:49.276Z,3.43
2017-09-10T15:53:15.915Z,1.30
2017-09-10T15:55:42.574Z,1.40
2017-09-10T15:58:09.252Z,1.33
2017-09-10T16:00:35.900Z,1.07
2017-09-10T16:03:02.554Z,1.50
2017-09-10T16:05:29.212Z,1.70
2017-09-10T16:07:55.876Z,4.00
2017-09-10T16:10:22.518Z,1.80
2017-09-10T16:12:49.200Z,7.80
2017-09-10T16:15:15.883Z,1.93
2017-09-10T16:17:42.520Z,2.20
2017-09-10T16:20:09.454Z,2.23
2017-09-10T16:22:36.108Z,6.17
2017-09-10T16:25:02.753Z,1.57
2017-09-10T16:27:29.425Z,2.23
2017-09-10T16:29:56.080Z,2.67
2017-09-10T16:32:22.720Z,1.87
2017-09-10T16:34:49.380Z,1.50
2017-09-10T16:37:16.018Z,1.93
2017-09-10T16:39:42.694Z,1.63
2017-09-10T16:42:09.383Z,2.67
2017-09-10T16:44:36.035Z,2.87
2017-09-10T16:47:02.679Z,2.10
2017-09-10T16:49:29.345Z,1.93
2017-09-10T16:51:55.999Z,2.23
2017-09-10T16:54:22.669Z,1.90
2017-09-10T16:56:49.312Z,2.30
2017-09-10T16:59:15.970Z,2.20
2017-09-10T17:01:43.170Z,4.90
2017-09-10T17:04:09.816Z,3.53
2017-09-10T17:06:36.488Z,3.37
2017-09-10T17:09:03.124Z,2.60
2017-09-10T17:11:29.761Z,3.07
2017-09-10T17:13:56.992Z,3.47
2017-09-10T17:16:23.639Z,5.00
2017-09-10T17:18:50.291Z,3.17
2017-09-10T17:21:16.966Z,3.80
2017-09-10T17:23:43.629Z,3.03
2017-09-10T17:26:10.596Z,3.97
2017-09-10T17:28:37.242Z,3.87
2017-09-10T17:31:03.883Z,4.23
2017-09-10T17:33:30.546Z,4.40
2017-09-10T17:35:57.220Z,4.77
2017-09-10T17:38:23.885Z,4.37
2017-09-10T17:40:50.579Z,7.90
2017-09-10T17:43:17.240Z,4.10
2017-09-10T17:45:43.877Z,3.63
2017-09-10T17:48:10.564Z,5.10
2017-09-10T17:50:37.224Z,12.77
2017-09-10T17:53:03.866Z,7.87
2017-09-10T17:55:30.536Z,5.47
2017-09-10T17:57:57.186Z,5.77
2017-09-10T18:00:23.853Z,5.50
2017-09-10T18:02:50.495Z,5.20
2017-09-10T18:05:17.164Z,6.37
2017-09-10T18:07:43.809Z,6.80
2017-09-10T18:10:10.613Z,6.63
2017-09-10T18:12:37.268Z,5.60
2017-09-10T18:15:03.920Z,6.03
2017-09-10T18:17:30.581Z,6.00
2017-09-10T18:19:57.237Z,4.77
2017-09-10T18:22:23.913Z,5.27
2017-09-10T18:24:50.575Z,6.47
2017-09-10T18:27:17.237Z,6.83
2017-09-10T18:29:43.881Z,8.30
2017-09-10T18:32:10.534Z,9.00
2017-09-10T18:34:37.345Z,6.77
2017-09-10T18:37:03.993Z,7.77
2017-09-10T18:39:30.650Z,8.40
2017-09-10T18:41:57.593Z,9.33
2017-09-10T18:44:24.253Z,9.10
2017-09-10T18:46:50.919Z,11.10
2017-09-10T18:49:17.617Z,12.47
2017-09-10T18:51:44.309Z,9.30
2017-09-10T18:54:11.004Z,19.07
2017-09-10T18:56:37.665Z,11.57
2017-09-10T18:59:04.323Z,11.90
2017-09-10T19:01:31.028Z,11.13
2017-09-10T19:03:57.697Z,11.10
2017-09-10T19:06:24.407Z,11.07
2017-09-10T19:08:51.070Z,10.67
2017-09-10T19:11:17.756Z,10.93
2017-09-10T19:13:44.638Z,11.90
2017-09-10T19:16:11.294Z,12.20
2017-09-10T19:18:38.023Z,12.87
2017-09-10T19:21:04.691Z,13.40
2017-09-10T19:23:31.376Z,12.37
2017-09-10T19:25:58.044Z,11.93
2017-09-10T19:28:24.702Z,11.50
2017-09-10T19:30:51.401Z,15.23
2017-09-10T19:33:18.070Z,10.10
2017-09-10T19:35:44.779Z,11.37
2017-09-10T19:38:11.452Z,12.13
2017-09-10T19:40:38.116Z,16.50
2017-09-10T19:43:04.835Z,17.00
2017-09-10T19:45:31.557Z,11.53
2017-09-10T19:47:58.221Z,10.87
2017-09-10T19:50:24.903Z,10.87
2017-09-10T19:52:51.584Z,10.70
2017-09-10T19:55:18.252Z,12.57
2017-09-10T19:57:44.908Z,11.27
2017-09-10T20:06:54.320Z,11.17
2017-09-10T20:09:20.964Z,11.27
2017-09-10T20:11:47.644Z,12.67
2017-09-10T20:14:14.311Z,13.77
2017-09-10T20:16:40.951Z,12.10
2017-09-10T20:19:07.636Z,10.33
2017-09-10T20:21:34.286Z,11.67
2017-09-10T20:24:00.956Z,11.20
2017-09-10T20:26:27.617Z,11.63
2017-09-10T20:28:54.291Z,15.97
2017-09-10T20:31:20.952Z,13.07
2017-09-10T20:33:47.608Z,13.27
2017-09-10T20:36:14.275Z,11.83
2017-09-10T20:38:40.924Z,12.70
2017-09-10T20:41:07.571Z,12.13
2017-09-10T20:43:34.249Z,12.40
2017-09-10T20:46:00.899Z,13.07
2017-09-10T20:48:27.577Z,12.93
2017-09-10T20:50:54.231Z,12.33
2017-09-10T20:53:21.011Z,11.90
2017-09-10T20:55:47.660Z,11.33
2017-09-10T20:58:14.309Z,12.33
2017-09-10T21:00:40.977Z,11.50
2017-09-10T21:03:07.627Z,11.00
2017-09-10T21:05:34.283Z,10.40
2017-09-10T21:08:00.977Z,12.43
2017-09-10T21:10:27.637Z,11.27
2017-09-10T21:12:54.289Z,11.37
2017-09-10T21:15:20.968Z,11.60
2017-09-10T21:17:47.649Z,11.93
2017-09-10T21:20:14.296Z,12.07
2017-09-10T21:22:40.944Z,13.33
2017-09-10T21:25:08.008Z,11.63
2017-09-10T21:27:34.660Z,11.80
2017-09-10T21:30:01.310Z,11.67
2017-09-10T21:32:28.025Z,11.73
2017-09-10T21:34:54.673Z,11.23
2017-09-10T21:37:21.336Z,11.27
2017-09-10T21:39:48.024Z,11.17
2017-09-10T21:42:14.677Z,11.37
2017-09-10T21:44:41.324Z,10.97
2017-09-10T21:47:08.000Z,11.73
2017-09-10T21:49:34.649Z,11.27
2017-09-10T21:52:01.340Z,10.57
2017-09-10T21:54:27.983Z,10.70
2017-09-10T21:56:54.633Z,10.60
2017-09-10T21:59:21.695Z,10.13
2017-09-10T22:01:48.335Z,10.50
2017-09-10T22:04:14.991Z,11.07
2017-09-10T22:06:41.919Z,12.00
2017-09-10T22:09:08.568Z,10.33
2017-09-10T22:11:35.211Z,11.40
2017-09-10T22:14:01.876Z,10.23
2017-09-10T22:16:28.527Z,12.90
2017-09-10T22:18:55.537Z,11.20
2017-09-10T22:21:22.214Z,11.37
2017-09-10T22:23:48.858Z,10.70
2017-09-10T22:26:15.533Z,11.70
2017-09-10T22:28:42.619Z,12.73
2017-09-10T22:31:09.283Z,12.77
2017-09-10T22:33:35.933Z,11.57
2017-09-10T22:36:02.613Z,12.17
2017-09-10T22:38:29.263Z,13.00
2017-09-10T22:40:56.129Z,11.97
2017-09-10T22:43:22.784Z,13.10
2017-09-10T22:45:49.439Z,12.33
2017-09-10T22:48:16.104Z,12.07
2017-09-10T22:50:42.927Z,12.43
2017-09-10T22:53:09.613Z,11.53
2017-09-10T22:55:36.385Z,11.90
2017-09-10T22:58:03.037Z,12.57
2017-09-10T23:00:29.688Z,12.87
2017-09-10T23:02:56.360Z,12.97
2017-09-10T23:05:23.016Z,11.60
2017-09-10T23:07:49.686Z,12.50
2017-09-10T23:10:16.337Z,12.70
2017-09-10T23:12:43.013Z,11.53
2017-09-10T23:15:09.664Z,12.63
2017-09-10T23:17:36.311Z,12.10
2017-09-10T23:20:03.012Z,15.47
2017-09-10T23:22:29.663Z,13.00
2017-09-10T23:24:56.312Z,12.60
2017-09-10T23:27:22.980Z,14.23
2017-09-10T23:29:49.654Z,15.90
2017-09-10T23:32:16.364Z,14.70
2017-09-10T23:34:43.015Z,14.20
2017-09-10T23:37:09.664Z,15.07
2017-09-10T23:39:36.340Z,15.53
2017-09-10T23:42:03.049Z,13.00
2017-09-10T23:44:29.703Z,14.93
2017-09-10T23:46:56.348Z,13.27
2017-09-10T23:49:23.024Z,13.50
2017-09-10T23:51:49.681Z,13.63
2017-09-10T23:54:16.324Z,13.43
2017-09-10T23:56:43.004Z,12.50
2017-09-10T23:59:09.658Z,12.67
